Alapaha, Georgia
Current Conditions -  °F | °C
As of 10:55 PM on Saturday 20 Dec 2014 (Local Time) from KTMA Reporting Station
Broken Clouds Broken Clouds  
Wind Chill: 52°   Ceiling: 7500
Heat Index: 52°   Visibility: 10mi
Dew Point: 51°   Wind: 3mph
Humidity: 97%   Direction: 60°ENE
Pressure: 30.16"   Gusts: NA
Location:  31.39°N, 83.22°W
Report Text: KTMA 210355Z AUTO 06003KT 10SM BKN075 11/11 A3016 RMK AO2 T01120107
Loading
Personal Weather Stations






























Interactive Weather Map New forecast layout! Learn more

10-Day Weather Forecast

Advertisements
Track Severe Weather on mobile